sensor_id;sensor_type;location;lat;lon;timestamp;P1;durP1;ratioP1;P2;durP2;ratioP2
29720;SDS011;23665;51.044;3.748;2022-09-12T00:00:40;10.07;;;3.40;;
29720;SDS011;23665;51.044;3.748;2022-09-12T00:03:05;6.03;;;3.87;;
29720;SDS011;23665;51.044;3.748;2022-09-12T00:05:31;6.03;;;3.53;;
29720;SDS011;23665;51.044;3.748;2022-09-12T00:07:57;5.93;;;3.63;;
29720;SDS011;23665;51.044;3.748;2022-09-12T00:10:23;6.50;;;3.30;;
29720;SDS011;23665;51.044;3.748;2022-09-12T00:12:50;8.07;;;3.53;;
29720;SDS011;23665;51.044;3.748;2022-09-12T00:15:16;5.07;;;3.73;;
29720;SDS011;23665;51.044;3.748;2022-09-12T00:17:41;6.00;;;3.30;;
29720;SDS011;23665;51.044;3.748;2022-09-12T00:20:08;6.13;;;4.00;;
29720;SDS011;23665;51.044;3.748;2022-09-12T00:22:34;7.60;;;3.93;;
29720;SDS011;23665;51.044;3.748;2022-09-12T00:25:00;5.63;;;3.50;;
29720;SDS011;23665;51.044;3.748;2022-09-12T00:27:27;7.07;;;4.57;;
29720;SDS011;23665;51.044;3.748;2022-09-12T00:29:52;8.27;;;3.80;;
29720;SDS011;23665;51.044;3.748;2022-09-12T00:32:18;9.10;;;4.10;;
29720;SDS011;23665;51.044;3.748;2022-09-12T00:34:45;6.97;;;3.43;;
29720;SDS011;23665;51.044;3.748;2022-09-12T00:37:11;4.90;;;3.63;;
29720;SDS011;23665;51.044;3.748;2022-09-12T00:39:36;9.40;;;4.07;;
29720;SDS011;23665;51.044;3.748;2022-09-12T00:42:03;7.93;;;5.07;;
29720;SDS011;23665;51.044;3.748;2022-09-12T00:49:52;6.37;;;4.67;;
29720;SDS011;23665;51.044;3.748;2022-09-12T00:52:49;6.00;;;4.13;;
29720;SDS011;23665;51.044;3.748;2022-09-12T00:55:40;6.97;;;4.13;;
29720;SDS011;23665;51.044;3.748;2022-09-12T00:58:33;8.40;;;4.80;;
29720;SDS011;23665;51.044;3.748;2022-09-12T01:01:04;4.93;;;3.93;;
29720;SDS011;23665;51.044;3.748;2022-09-12T01:03:30;7.60;;;4.63;;
29720;SDS011;23665;51.044;3.748;2022-09-12T01:06:15;5.17;;;3.17;;
29720;SDS011;23665;51.044;3.748;2022-09-12T01:08:46;5.37;;;3.97;;
29720;SDS011;23665;51.044;3.748;2022-09-12T01:11:12;5.70;;;3.97;;
29720;SDS011;23665;51.044;3.748;2022-09-12T01:13:39;7.50;;;4.70;;
29720;SDS011;23665;51.044;3.748;2022-09-12T01:16:05;8.93;;;5.83;;
29720;SDS011;23665;51.044;3.748;2022-09-12T01:32:24;13.83;;;4.97;;
29720;SDS011;23665;51.044;3.748;2022-09-12T01:37:38;9.73;;;3.87;;
29720;SDS011;23665;51.044;3.748;2022-09-12T01:40:11;7.87;;;4.57;;
29720;SDS011;23665;51.044;3.748;2022-09-12T01:45:36;5.87;;;3.77;;
29720;SDS011;23665;51.044;3.748;2022-09-12T01:48:15;4.27;;;3.20;;
29720;SDS011;23665;51.044;3.748;2022-09-12T01:50:58;9.70;;;4.83;;
29720;SDS011;23665;51.044;3.748;2022-09-12T01:53:38;5.40;;;3.40;;
29720;SDS011;23665;51.044;3.748;2022-09-12T01:56:22;9.07;;;4.60;;
29720;SDS011;23665;51.044;3.748;2022-09-12T01:59:10;7.57;;;4.40;;
29720;SDS011;23665;51.044;3.748;2022-09-12T02:01:54;7.70;;;4.93;;
29720;SDS011;23665;51.044;3.748;2022-09-12T02:05:00;6.57;;;4.73;;
29720;SDS011;23665;51.044;3.748;2022-09-12T02:07:39;8.07;;;5.63;;
29720;SDS011;23665;51.044;3.748;2022-09-12T02:10:22;5.90;;;3.70;;
29720;SDS011;23665;51.044;3.748;2022-09-12T02:12:55;5.63;;;3.70;;
29720;SDS011;23665;51.044;3.748;2022-09-12T02:15:30;8.43;;;4.87;;
29720;SDS011;23665;51.044;3.748;2022-09-12T02:17:59;7.57;;;3.57;;
29720;SDS011;23665;51.044;3.748;2022-09-12T02:20:28;5.23;;;3.27;;
29720;SDS011;23665;51.044;3.748;2022-09-12T02:22:58;6.60;;;4.80;;
29720;SDS011;23665;51.044;3.748;2022-09-12T02:25:25;8.57;;;5.40;;
29720;SDS011;23665;51.044;3.748;2022-09-12T02:27:54;8.87;;;6.10;;
29720;SDS011;23665;51.044;3.748;2022-09-12T02:30:21;11.17;;;5.37;;
29720;SDS011;23665;51.044;3.748;2022-09-12T02:35:30;8.43;;;4.27;;
29720;SDS011;23665;51.044;3.748;2022-09-12T02:41:04;7.67;;;3.80;;
29720;SDS011;23665;51.044;3.748;2022-09-12T02:43:30;10.27;;;6.10;;
29720;SDS011;23665;51.044;3.748;2022-09-12T02:45:55;7.20;;;5.30;;
29720;SDS011;23665;51.044;3.748;2022-09-12T02:48:30;10.50;;;6.13;;
29720;SDS011;23665;51.044;3.748;2022-09-12T02:51:00;8.73;;;5.97;;
29720;SDS011;23665;51.044;3.748;2022-09-12T02:53:26;7.93;;;4.87;;
29720;SDS011;23665;51.044;3.748;2022-09-12T02:55:53;6.43;;;3.87;;
29720;SDS011;23665;51.044;3.748;2022-09-12T02:58:23;11.00;;;5.30;;
29720;SDS011;23665;51.044;3.748;2022-09-12T03:09:21;6.97;;;4.50;;
29720;SDS011;23665;51.044;3.748;2022-09-12T03:12:07;7.37;;;4.90;;
29720;SDS011;23665;51.044;3.748;2022-09-12T03:23:52;6.07;;;4.37;;
29720;SDS011;23665;51.044;3.748;2022-09-12T03:26:32;8.63;;;4.07;;
29720;SDS011;23665;51.044;3.748;2022-09-12T03:29:11;6.50;;;4.33;;
29720;SDS011;23665;51.044;3.748;2022-09-12T03:31:47;5.80;;;4.27;;
29720;SDS011;23665;51.044;3.748;2022-09-12T03:34:14;5.73;;;3.80;;
29720;SDS011;23665;51.044;3.748;2022-09-12T03:36:40;10.13;;;4.80;;
29720;SDS011;23665;51.044;3.748;2022-09-12T03:39:05;5.17;;;3.43;;
29720;SDS011;23665;51.044;3.748;2022-09-12T03:41:31;7.87;;;4.17;;
29720;SDS011;23665;51.044;3.748;2022-09-12T03:43:57;10.37;;;5.70;;
29720;SDS011;23665;51.044;3.748;2022-09-12T03:46:22;8.40;;;4.70;;
29720;SDS011;23665;51.044;3.748;2022-09-12T03:48:48;6.67;;;4.03;;
29720;SDS011;23665;51.044;3.748;2022-09-12T03:51:14;5.67;;;4.60;;
29720;SDS011;23665;51.044;3.748;2022-09-12T03:53:40;11.57;;;5.30;;
29720;SDS011;23665;51.044;3.748;2022-09-12T03:56:07;9.80;;;5.80;;
29720;SDS011;23665;51.044;3.748;2022-09-12T03:58:34;8.13;;;4.53;;
29720;SDS011;23665;51.044;3.748;2022-09-12T04:01:07;8.70;;;5.63;;
29720;SDS011;23665;51.044;3.748;2022-09-12T04:03:41;7.33;;;5.20;;
29720;SDS011;23665;51.044;3.748;2022-09-12T04:06:08;8.73;;;5.10;;
29720;SDS011;23665;51.044;3.748;2022-09-12T04:08:36;12.10;;;6.60;;
29720;SDS011;23665;51.044;3.748;2022-09-12T04:11:05;11.87;;;6.43;;
29720;SDS011;23665;51.044;3.748;2022-09-12T04:13:34;6.47;;;4.50;;
29720;SDS011;23665;51.044;3.748;2022-09-12T04:16:02;6.43;;;3.67;;
29720;SDS011;23665;51.044;3.748;2022-09-12T04:18:29;8.37;;;4.13;;
29720;SDS011;23665;51.044;3.748;2022-09-12T04:20:55;9.17;;;4.83;;
29720;SDS011;23665;51.044;3.748;2022-09-12T04:23:21;6.70;;;4.80;;
29720;SDS011;23665;51.044;3.748;2022-09-12T04:25:54;9.37;;;5.27;;
29720;SDS011;23665;51.044;3.748;2022-09-12T04:28:21;11.40;;;5.20;;
29720;SDS011;23665;51.044;3.748;2022-09-12T04:30:47;9.93;;;5.40;;
29720;SDS011;23665;51.044;3.748;2022-09-12T04:33:13;7.77;;;5.13;;
29720;SDS011;23665;51.044;3.748;2022-09-12T04:35:39;8.67;;;5.30;;
29720;SDS011;23665;51.044;3.748;2022-09-12T04:38:05;8.90;;;4.20;;
29720;SDS011;23665;51.044;3.748;2022-09-12T04:40:31;8.40;;;4.20;;
29720;SDS011;23665;51.044;3.748;2022-09-12T04:42:57;9.60;;;5.77;;
29720;SDS011;23665;51.044;3.748;2022-09-12T04:45:23;8.77;;;4.90;;
29720;SDS011;23665;51.044;3.748;2022-09-12T04:47:49;9.20;;;4.20;;
29720;SDS011;23665;51.044;3.748;2022-09-12T04:50:16;6.07;;;4.30;;
29720;SDS011;23665;51.044;3.748;2022-09-12T04:52:42;8.27;;;4.93;;
29720;SDS011;23665;51.044;3.748;2022-09-12T04:55:08;11.27;;;5.57;;
29720;SDS011;23665;51.044;3.748;2022-09-12T04:57:34;7.90;;;6.13;;
29720;SDS011;23665;51.044;3.748;2022-09-12T05:00:00;10.97;;;6.47;;
29720;SDS011;23665;51.044;3.748;2022-09-12T05:02:31;9.73;;;5.57;;
29720;SDS011;23665;51.044;3.748;2022-09-12T05:04:58;11.53;;;5.77;;
29720;SDS011;23665;51.044;3.748;2022-09-12T05:07:24;19.03;;;5.57;;
29720;SDS011;23665;51.044;3.748;2022-09-12T05:09:50;9.17;;;5.00;;
29720;SDS011;23665;51.044;3.748;2022-09-12T05:12:16;9.13;;;4.83;;
29720;SDS011;23665;51.044;3.748;2022-09-12T05:14:41;9.50;;;5.13;;
29720;SDS011;23665;51.044;3.748;2022-09-12T05:17:07;9.77;;;5.93;;
29720;SDS011;23665;51.044;3.748;2022-09-12T05:19:33;13.27;;;5.70;;
29720;SDS011;23665;51.044;3.748;2022-09-12T05:21:59;5.83;;;4.57;;
29720;SDS011;23665;51.044;3.748;2022-09-12T05:24:24;12.30;;;5.93;;
29720;SDS011;23665;51.044;3.748;2022-09-12T05:26:50;12.87;;;5.60;;
29720;SDS011;23665;51.044;3.748;2022-09-12T05:29:16;10.40;;;6.63;;
29720;SDS011;23665;51.044;3.748;2022-09-12T05:31:42;9.27;;;5.80;;
29720;SDS011;23665;51.044;3.748;2022-09-12T05:34:08;10.93;;;7.60;;
29720;SDS011;23665;51.044;3.748;2022-09-12T05:36:34;12.00;;;7.70;;
29720;SDS011;23665;51.044;3.748;2022-09-12T05:39:01;19.63;;;11.93;;
29720;SDS011;23665;51.044;3.748;2022-09-12T05:41:28;17.23;;;11.30;;
29720;SDS011;23665;51.044;3.748;2022-09-12T05:43:58;15.30;;;9.33;;
29720;SDS011;23665;51.044;3.748;2022-09-12T05:46:26;15.73;;;10.10;;
29720;SDS011;23665;51.044;3.748;2022-09-12T05:48:54;15.40;;;9.37;;
29720;SDS011;23665;51.044;3.748;2022-09-12T05:51:24;15.07;;;9.60;;
29720;SDS011;23665;51.044;3.748;2022-09-12T05:53:53;16.03;;;9.83;;
29720;SDS011;23665;51.044;3.748;2022-09-12T05:56:21;15.33;;;9.97;;
29720;SDS011;23665;51.044;3.748;2022-09-12T05:58:57;15.13;;;9.43;;
29720;SDS011;23665;51.044;3.748;2022-09-12T06:01:24;15.63;;;10.10;;
29720;SDS011;23665;51.044;3.748;2022-09-12T06:03:52;12.30;;;8.87;;
29720;SDS011;23665;51.044;3.748;2022-09-12T06:06:20;14.80;;;10.30;;
29720;SDS011;23665;51.044;3.748;2022-09-12T06:08:48;16.67;;;10.37;;
29720;SDS011;23665;51.044;3.748;2022-09-12T06:11:17;17.60;;;10.40;;
29720;SDS011;23665;51.044;3.748;2022-09-12T06:13:44;22.03;;;12.80;;
29720;SDS011;23665;51.044;3.748;2022-09-12T06:16:15;14.90;;;10.23;;
29720;SDS011;23665;51.044;3.748;2022-09-12T06:18:46;14.17;;;10.17;;
29720;SDS011;23665;51.044;3.748;2022-09-12T06:21:13;14.50;;;10.47;;
29720;SDS011;23665;51.044;3.748;2022-09-12T06:23:39;17.93;;;12.23;;
29720;SDS011;23665;51.044;3.748;2022-09-12T06:26:05;18.50;;;11.10;;
29720;SDS011;23665;51.044;3.748;2022-09-12T06:28:34;19.27;;;11.20;;
29720;SDS011;23665;51.044;3.748;2022-09-12T06:31:03;20.83;;;11.10;;
29720;SDS011;23665;51.044;3.748;2022-09-12T06:33:30;18.00;;;11.53;;
29720;SDS011;23665;51.044;3.748;2022-09-12T06:36:05;17.20;;;11.17;;
29720;SDS011;23665;51.044;3.748;2022-09-12T06:38:35;14.63;;;10.20;;
29720;SDS011;23665;51.044;3.748;2022-09-12T06:41:03;18.73;;;11.50;;
29720;SDS011;23665;51.044;3.748;2022-09-12T06:43:29;19.97;;;10.50;;
29720;SDS011;23665;51.044;3.748;2022-09-12T06:45:56;17.63;;;10.93;;
29720;SDS011;23665;51.044;3.748;2022-09-12T06:48:22;20.40;;;10.73;;
29720;SDS011;23665;51.044;3.748;2022-09-12T06:50:57;18.10;;;11.27;;
29720;SDS011;23665;51.044;3.748;2022-09-12T06:53:25;21.60;;;11.47;;
29720;SDS011;23665;51.044;3.748;2022-09-12T06:55:58;19.03;;;11.20;;
29720;SDS011;23665;51.044;3.748;2022-09-12T06:58:25;18.17;;;10.70;;
29720;SDS011;23665;51.044;3.748;2022-09-12T07:00:52;19.10;;;8.77;;
29720;SDS011;23665;51.044;3.748;2022-09-12T07:03:26;18.17;;;9.63;;
29720;SDS011;23665;51.044;3.748;2022-09-12T07:05:52;14.03;;;7.93;;
29720;SDS011;23665;51.044;3.748;2022-09-12T07:08:17;19.33;;;8.13;;
29720;SDS011;23665;51.044;3.748;2022-09-12T07:10:43;10.93;;;7.83;;
29720;SDS011;23665;51.044;3.748;2022-09-12T07:13:09;11.90;;;8.70;;
29720;SDS011;23665;51.044;3.748;2022-09-12T07:15:35;11.87;;;7.87;;
29720;SDS011;23665;51.044;3.748;2022-09-12T07:18:01;13.20;;;8.50;;
29720;SDS011;23665;51.044;3.748;2022-09-12T07:20:28;14.20;;;7.10;;
29720;SDS011;23665;51.044;3.748;2022-09-12T07:22:53;16.07;;;7.17;;
29720;SDS011;23665;51.044;3.748;2022-09-12T07:25:19;10.03;;;6.50;;
29720;SDS011;23665;51.044;3.748;2022-09-12T07:27:45;9.87;;;6.37;;
29720;SDS011;23665;51.044;3.748;2022-09-12T07:30:11;10.50;;;6.63;;
29720;SDS011;23665;51.044;3.748;2022-09-12T07:32:36;14.60;;;6.97;;
29720;SDS011;23665;51.044;3.748;2022-09-12T07:35:02;9.73;;;6.03;;
29720;SDS011;23665;51.044;3.748;2022-09-12T07:37:31;12.00;;;6.97;;
29720;SDS011;23665;51.044;3.748;2022-09-12T07:39:56;13.27;;;7.20;;
29720;SDS011;23665;51.044;3.748;2022-09-12T07:42:23;12.80;;;6.70;;
29720;SDS011;23665;51.044;3.748;2022-09-12T07:44:48;10.43;;;6.07;;
29720;SDS011;23665;51.044;3.748;2022-09-12T07:47:16;18.20;;;6.47;;
29720;SDS011;23665;51.044;3.748;2022-09-12T07:49:42;9.43;;;5.40;;
29720;SDS011;23665;51.044;3.748;2022-09-12T07:52:08;12.63;;;6.13;;
29720;SDS011;23665;51.044;3.748;2022-09-12T07:54:34;8.73;;;4.80;;
29720;SDS011;23665;51.044;3.748;2022-09-12T07:56:59;8.77;;;5.70;;
29720;SDS011;23665;51.044;3.748;2022-09-12T07:59:25;12.53;;;5.53;;
29720;SDS011;23665;51.044;3.748;2022-09-12T08:01:52;7.40;;;4.50;;
29720;SDS011;23665;51.044;3.748;2022-09-12T08:04:18;6.07;;;4.30;;
29720;SDS011;23665;51.044;3.748;2022-09-12T08:06:44;12.37;;;4.63;;
29720;SDS011;23665;51.044;3.748;2022-09-12T08:09:09;7.13;;;4.70;;
29720;SDS011;23665;51.044;3.748;2022-09-12T08:11:37;7.70;;;4.77;;
29720;SDS011;23665;51.044;3.748;2022-09-12T08:14:02;7.03;;;4.60;;
29720;SDS011;23665;51.044;3.748;2022-09-12T08:16:30;8.40;;;4.87;;
29720;SDS011;23665;51.044;3.748;2022-09-12T08:18:56;7.17;;;3.67;;
29720;SDS011;23665;51.044;3.748;2022-09-12T08:21:25;8.13;;;3.40;;
29720;SDS011;23665;51.044;3.748;2022-09-12T08:23:56;8.87;;;3.67;;
29720;SDS011;23665;51.044;3.748;2022-09-12T08:26:23;5.50;;;3.73;;
29720;SDS011;23665;51.044;3.748;2022-09-12T08:28:49;12.77;;;4.00;;
29720;SDS011;23665;51.044;3.748;2022-09-12T08:31:16;5.67;;;3.57;;
29720;SDS011;23665;51.044;3.748;2022-09-12T08:33:43;5.60;;;3.40;;
29720;SDS011;23665;51.044;3.748;2022-09-12T08:36:13;8.43;;;3.80;;
29720;SDS011;23665;51.044;3.748;2022-09-12T08:38:46;9.90;;;3.80;;
29720;SDS011;23665;51.044;3.748;2022-09-12T08:41:31;7.00;;;3.70;;
29720;SDS011;23665;51.044;3.748;2022-09-12T08:55:33;8.90;;;3.70;;
29720;SDS011;23665;51.044;3.748;2022-09-12T08:58:00;10.57;;;3.47;;
29720;SDS011;23665;51.044;3.748;2022-09-12T09:00:37;5.67;;;2.87;;
29720;SDS011;23665;51.044;3.748;2022-09-12T09:09:20;4.67;;;3.00;;
29720;SDS011;23665;51.044;3.748;2022-09-12T09:12:16;4.40;;;2.60;;
29720;SDS011;23665;51.044;3.748;2022-09-12T09:20:06;4.10;;;2.20;;
29720;SDS011;23665;51.044;3.748;2022-09-12T09:22:39;6.43;;;2.50;;
29720;SDS011;23665;51.044;3.748;2022-09-12T09:25:28;5.03;;;2.47;;
29720;SDS011;23665;51.044;3.748;2022-09-12T09:28:03;5.27;;;2.77;;
29720;SDS011;23665;51.044;3.748;2022-09-12T09:30:43;5.50;;;2.13;;
29720;SDS011;23665;51.044;3.748;2022-09-12T09:33:11;6.07;;;2.47;;
29720;SDS011;23665;51.044;3.748;2022-09-12T09:35:45;4.07;;;2.23;;
29720;SDS011;23665;51.044;3.748;2022-09-12T09:38:23;8.83;;;2.50;;
29720;SDS011;23665;51.044;3.748;2022-09-12T09:43:38;6.53;;;2.10;;
29720;SDS011;23665;51.044;3.748;2022-09-12T09:46:03;12.13;;;2.67;;
29720;SDS011;23665;51.044;3.748;2022-09-12T09:48:31;3.80;;;2.00;;
29720;SDS011;23665;51.044;3.748;2022-09-12T09:50:59;5.17;;;2.20;;
29720;SDS011;23665;51.044;3.748;2022-09-12T09:53:30;5.50;;;2.57;;
29720;SDS011;23665;51.044;3.748;2022-09-12T09:55:58;6.03;;;2.80;;
29720;SDS011;23665;51.044;3.748;2022-09-12T09:58:28;5.10;;;2.70;;
29720;SDS011;23665;51.044;3.748;2022-09-12T10:01:37;5.90;;;2.70;;
29720;SDS011;23665;51.044;3.748;2022-09-12T10:03:52;4.53;;;2.50;;
29720;SDS011;23665;51.044;3.748;2022-09-12T10:08:48;7.67;;;2.83;;
29720;SDS011;23665;51.044;3.748;2022-09-12T10:13:41;7.97;;;2.90;;
29720;SDS011;23665;51.044;3.748;2022-09-12T10:16:22;8.60;;;2.80;;
29720;SDS011;23665;51.044;3.748;2022-09-12T10:18:49;3.87;;;2.20;;
29720;SDS011;23665;51.044;3.748;2022-09-12T10:26:50;9.63;;;2.37;;
29720;SDS011;23665;51.044;3.748;2022-09-12T10:30:02;3.30;;;1.80;;
29720;SDS011;23665;51.044;3.748;2022-09-12T10:32:14;3.57;;;1.90;;
29720;SDS011;23665;51.044;3.748;2022-09-12T10:34:52;3.70;;;1.70;;
29720;SDS011;23665;51.044;3.748;2022-09-12T10:37:25;3.80;;;1.87;;
29720;SDS011;23665;51.044;3.748;2022-09-12T10:39:54;3.23;;;1.63;;
29720;SDS011;23665;51.044;3.748;2022-09-12T10:45:19;2.87;;;1.77;;
29720;SDS011;23665;51.044;3.748;2022-09-12T10:48:00;4.63;;;2.10;;
29720;SDS011;23665;51.044;3.748;2022-09-12T10:50:45;5.70;;;1.87;;
29720;SDS011;23665;51.044;3.748;2022-09-12T10:53:17;5.83;;;2.07;;
29720;SDS011;23665;51.044;3.748;2022-09-12T11:06:38;5.27;;;1.60;;
29720;SDS011;23665;51.044;3.748;2022-09-12T11:09:22;3.87;;;1.80;;
29720;SDS011;23665;51.044;3.748;2022-09-12T11:14:28;3.57;;;2.00;;
29720;SDS011;23665;51.044;3.748;2022-09-12T11:31:39;3.50;;;1.40;;
29720;SDS011;23665;51.044;3.748;2022-09-12T11:34:13;3.30;;;1.40;;
29720;SDS011;23665;51.044;3.748;2022-09-12T11:39:47;4.53;;;1.70;;
29720;SDS011;23665;51.044;3.748;2022-09-12T11:42:18;6.43;;;2.33;;
29720;SDS011;23665;51.044;3.748;2022-09-12T11:44:53;3.70;;;1.50;;
29720;SDS011;23665;51.044;3.748;2022-09-12T11:47:32;3.67;;;1.80;;
29720;SDS011;23665;51.044;3.748;2022-09-12T11:50:00;6.00;;;1.70;;
29720;SDS011;23665;51.044;3.748;2022-09-12T11:52:32;5.23;;;1.93;;
29720;SDS011;23665;51.044;3.748;2022-09-12T12:00:21;3.67;;;1.40;;
29720;SDS011;23665;51.044;3.748;2022-09-12T12:08:40;2.37;;;1.30;;
29720;SDS011;23665;51.044;3.748;2022-09-12T12:11:08;3.63;;;1.40;;
29720;SDS011;23665;51.044;3.748;2022-09-12T12:13:46;3.90;;;1.33;;
29720;SDS011;23665;51.044;3.748;2022-09-12T12:21:46;3.67;;;1.30;;
29720;SDS011;23665;51.044;3.748;2022-09-12T12:24:14;5.73;;;1.40;;
29720;SDS011;23665;51.044;3.748;2022-09-12T12:26:42;3.30;;;1.20;;
29720;SDS011;23665;51.044;3.748;2022-09-12T12:34:32;2.57;;;0.80;;
29720;SDS011;23665;51.044;3.748;2022-09-12T12:45:02;3.23;;;1.27;;
29720;SDS011;23665;51.044;3.748;2022-09-12T12:47:31;5.53;;;1.40;;
29720;SDS011;23665;51.044;3.748;2022-09-12T12:52:57;3.13;;;1.13;;
29720;SDS011;23665;51.044;3.748;2022-09-12T12:55:34;3.50;;;1.10;;
29720;SDS011;23665;51.044;3.748;2022-09-12T13:00:45;2.83;;;1.30;;
29720;SDS011;23665;51.044;3.748;2022-09-12T13:03:26;3.60;;;1.00;;
29720;SDS011;23665;51.044;3.748;2022-09-12T13:05:58;4.63;;;1.00;;
29720;SDS011;23665;51.044;3.748;2022-09-12T13:08:29;2.80;;;1.10;;
29720;SDS011;23665;51.044;3.748;2022-09-12T13:13:36;3.33;;;1.13;;
29720;SDS011;23665;51.044;3.748;2022-09-12T13:16:08;2.30;;;0.83;;
29720;SDS011;23665;51.044;3.748;2022-09-12T13:19:10;2.67;;;1.00;;
29720;SDS011;23665;51.044;3.748;2022-09-12T13:24:27;4.33;;;1.10;;
29720;SDS011;23665;51.044;3.748;2022-09-12T13:26:53;2.53;;;1.10;;
29720;SDS011;23665;51.044;3.748;2022-09-12T13:29:20;4.73;;;1.03;;
29720;SDS011;23665;51.044;3.748;2022-09-12T13:31:48;3.63;;;0.77;;
29720;SDS011;23665;51.044;3.748;2022-09-12T13:34:24;3.70;;;1.40;;
29720;SDS011;23665;51.044;3.748;2022-09-12T13:39:47;2.73;;;0.90;;
29720;SDS011;23665;51.044;3.748;2022-09-12T13:47:44;2.10;;;0.90;;
29720;SDS011;23665;51.044;3.748;2022-09-12T13:50:36;2.67;;;1.17;;
29720;SDS011;23665;51.044;3.748;2022-09-12T13:53:03;3.93;;;0.90;;
29720;SDS011;23665;51.044;3.748;2022-09-12T13:55:32;5.00;;;0.80;;
29720;SDS011;23665;51.044;3.748;2022-09-12T13:58:04;2.67;;;0.80;;
29720;SDS011;23665;51.044;3.748;2022-09-12T14:00:39;2.73;;;0.77;;
29720;SDS011;23665;51.044;3.748;2022-09-12T14:03:24;1.40;;;0.70;;
29720;SDS011;23665;51.044;3.748;2022-09-12T14:06:10;2.20;;;0.97;;
29720;SDS011;23665;51.044;3.748;2022-09-12T14:08:40;2.50;;;1.00;;
29720;SDS011;23665;51.044;3.748;2022-09-12T14:11:07;4.30;;;1.00;;
29720;SDS011;23665;51.044;3.748;2022-09-12T14:13:35;1.20;;;0.73;;
29720;SDS011;23665;51.044;3.748;2022-09-12T14:16:03;3.07;;;0.70;;
29720;SDS011;23665;51.044;3.748;2022-09-12T14:18:33;3.60;;;1.07;;
29720;SDS011;23665;51.044;3.748;2022-09-12T14:21:11;4.13;;;1.37;;
29720;SDS011;23665;51.044;3.748;2022-09-12T14:23:58;3.47;;;1.10;;
29720;SDS011;23665;51.044;3.748;2022-09-12T14:26:25;11.53;;;2.30;;
29720;SDS011;23665;51.044;3.748;2022-09-12T14:28:52;2.53;;;0.83;;
29720;SDS011;23665;51.044;3.748;2022-09-12T14:31:20;2.90;;;1.30;;
29720;SDS011;23665;51.044;3.748;2022-09-12T14:33:50;2.40;;;0.90;;
29720;SDS011;23665;51.044;3.748;2022-09-12T14:41:39;2.47;;;1.13;;
29720;SDS011;23665;51.044;3.748;2022-09-12T14:44:07;4.13;;;1.33;;
29720;SDS011;23665;51.044;3.748;2022-09-12T14:46:55;4.07;;;1.57;;
29720;SDS011;23665;51.044;3.748;2022-09-12T14:49:27;1.97;;;1.00;;
29720;SDS011;23665;51.044;3.748;2022-09-12T14:51:59;1.87;;;0.90;;
29720;SDS011;23665;51.044;3.748;2022-09-12T14:57:01;6.03;;;1.13;;
29720;SDS011;23665;51.044;3.748;2022-09-12T15:00:04;2.00;;;1.00;;
29720;SDS011;23665;51.044;3.748;2022-09-12T15:02:51;3.40;;;1.20;;
29720;SDS011;23665;51.044;3.748;2022-09-12T15:05:22;3.23;;;1.03;;
29720;SDS011;23665;51.044;3.748;2022-09-12T15:15:30;9.80;;;1.30;;
29720;SDS011;23665;51.044;3.748;2022-09-12T15:17:56;2.63;;;1.27;;
29720;SDS011;23665;51.044;3.748;2022-09-12T15:20:22;2.37;;;0.90;;
29720;SDS011;23665;51.044;3.748;2022-09-12T15:22:48;2.10;;;0.90;;
29720;SDS011;23665;51.044;3.748;2022-09-12T15:25:14;2.97;;;1.10;;
29720;SDS011;23665;51.044;3.748;2022-09-12T15:27:40;2.17;;;1.10;;
29720;SDS011;23665;51.044;3.748;2022-09-12T15:30:10;2.83;;;1.00;;
29720;SDS011;23665;51.044;3.748;2022-09-12T15:32:37;3.60;;;1.10;;
29720;SDS011;23665;51.044;3.748;2022-09-12T15:35:24;3.40;;;1.20;;
29720;SDS011;23665;51.044;3.748;2022-09-12T15:37:51;6.20;;;1.33;;
29720;SDS011;23665;51.044;3.748;2022-09-12T15:40:19;3.10;;;1.10;;
29720;SDS011;23665;51.044;3.748;2022-09-12T15:42:45;2.13;;;1.10;;
29720;SDS011;23665;51.044;3.748;2022-09-12T15:45:15;3.03;;;1.30;;
29720;SDS011;23665;51.044;3.748;2022-09-12T15:47:45;4.10;;;1.23;;
29720;SDS011;23665;51.044;3.748;2022-09-12T15:50:11;4.93;;;1.10;;
29720;SDS011;23665;51.044;3.748;2022-09-12T15:52:37;2.03;;;0.97;;
29720;SDS011;23665;51.044;3.748;2022-09-12T15:55:03;3.90;;;1.00;;
29720;SDS011;23665;51.044;3.748;2022-09-12T15:57:30;6.30;;;1.40;;
29720;SDS011;23665;51.044;3.748;2022-09-12T15:59:55;2.50;;;1.30;;
29720;SDS011;23665;51.044;3.748;2022-09-12T16:02:21;3.33;;;0.87;;
29720;SDS011;23665;51.044;3.748;2022-09-12T16:04:47;2.97;;;1.10;;
29720;SDS011;23665;51.044;3.748;2022-09-12T16:07:13;2.53;;;0.93;;
29720;SDS011;23665;51.044;3.748;2022-09-12T16:09:38;3.47;;;1.03;;
29720;SDS011;23665;51.044;3.748;2022-09-12T16:12:04;2.77;;;1.10;;
29720;SDS011;23665;51.044;3.748;2022-09-12T16:14:30;4.33;;;0.90;;
29720;SDS011;23665;51.044;3.748;2022-09-12T16:16:56;5.63;;;0.93;;
29720;SDS011;23665;51.044;3.748;2022-09-12T16:19:22;3.77;;;1.00;;
29720;SDS011;23665;51.044;3.748;2022-09-12T16:21:49;5.93;;;0.80;;
29720;SDS011;23665;51.044;3.748;2022-09-12T16:24:15;2.07;;;0.67;;
29720;SDS011;23665;51.044;3.748;2022-09-12T16:26:40;3.13;;;1.00;;
29720;SDS011;23665;51.044;3.748;2022-09-12T16:29:07;2.83;;;0.80;;
29720;SDS011;23665;51.044;3.748;2022-09-12T16:31:35;3.47;;;0.90;;
29720;SDS011;23665;51.044;3.748;2022-09-12T16:34:03;2.07;;;0.70;;
29720;SDS011;23665;51.044;3.748;2022-09-12T16:36:28;2.53;;;1.10;;
29720;SDS011;23665;51.044;3.748;2022-09-12T16:38:54;3.60;;;1.00;;
29720;SDS011;23665;51.044;3.748;2022-09-12T16:41:20;5.90;;;0.90;;
29720;SDS011;23665;51.044;3.748;2022-09-12T16:43:50;4.90;;;0.90;;
29720;SDS011;23665;51.044;3.748;2022-09-12T16:46:18;7.17;;;0.83;;
29720;SDS011;23665;51.044;3.748;2022-09-12T16:48:46;3.57;;;0.70;;
29720;SDS011;23665;51.044;3.748;2022-09-12T16:51:14;1.80;;;0.53;;
29720;SDS011;23665;51.044;3.748;2022-09-12T16:53:40;1.23;;;0.70;;
29720;SDS011;23665;51.044;3.748;2022-09-12T16:56:07;2.03;;;0.87;;
29720;SDS011;23665;51.044;3.748;2022-09-12T16:58:36;1.60;;;0.70;;
29720;SDS011;23665;51.044;3.748;2022-09-12T17:01:09;1.90;;;0.60;;
29720;SDS011;23665;51.044;3.748;2022-09-12T17:03:39;2.53;;;0.90;;
29720;SDS011;23665;51.044;3.748;2022-09-12T17:06:07;1.87;;;0.90;;
29720;SDS011;23665;51.044;3.748;2022-09-12T17:08:35;3.67;;;0.80;;
29720;SDS011;23665;51.044;3.748;2022-09-12T17:11:09;7.33;;;1.50;;
29720;SDS011;23665;51.044;3.748;2022-09-12T17:13:37;3.53;;;1.00;;
29720;SDS011;23665;51.044;3.748;2022-09-12T17:16:04;3.07;;;0.87;;
29720;SDS011;23665;51.044;3.748;2022-09-12T17:18:30;2.33;;;0.93;;
29720;SDS011;23665;51.044;3.748;2022-09-12T17:20:56;1.93;;;0.70;;
29720;SDS011;23665;51.044;3.748;2022-09-12T17:23:22;3.13;;;0.90;;
29720;SDS011;23665;51.044;3.748;2022-09-12T17:25:48;1.87;;;0.70;;
29720;SDS011;23665;51.044;3.748;2022-09-12T17:28:18;3.63;;;1.00;;
29720;SDS011;23665;51.044;3.748;2022-09-12T17:30:44;3.47;;;1.00;;
29720;SDS011;23665;51.044;3.748;2022-09-12T17:33:10;2.73;;;1.00;;
29720;SDS011;23665;51.044;3.748;2022-09-12T17:35:37;4.13;;;1.13;;
29720;SDS011;23665;51.044;3.748;2022-09-12T17:38:06;4.93;;;1.27;;
29720;SDS011;23665;51.044;3.748;2022-09-12T17:40:33;3.87;;;1.37;;
29720;SDS011;23665;51.044;3.748;2022-09-12T17:43:00;5.03;;;1.30;;
29720;SDS011;23665;51.044;3.748;2022-09-12T17:45:26;2.87;;;1.37;;
29720;SDS011;23665;51.044;3.748;2022-09-12T17:47:53;4.03;;;1.10;;
29720;SDS011;23665;51.044;3.748;2022-09-12T17:50:19;3.07;;;1.33;;
29720;SDS011;23665;51.044;3.748;2022-09-12T17:52:44;6.70;;;1.77;;
29720;SDS011;23665;51.044;3.748;2022-09-12T17:55:11;2.43;;;1.23;;
29720;SDS011;23665;51.044;3.748;2022-09-12T17:57:37;5.17;;;2.30;;
29720;SDS011;23665;51.044;3.748;2022-09-12T18:00:04;2.70;;;1.30;;
29720;SDS011;23665;51.044;3.748;2022-09-12T18:02:30;3.07;;;1.03;;